sensor_id;sensor_type;location;lat;lon;timestamp;P1;durP1;ratioP1;P2;durP2;ratioP2
11016;SDS011;54687;50.800;6.772;2023-04-01T00:01:15;0.85;;;0.73;;
11016;SDS011;54687;50.800;6.772;2023-04-01T00:03:41;2.08;;;1.00;;
11016;SDS011;54687;50.800;6.772;2023-04-01T00:06:09;3.30;;;2.22;;
11016;SDS011;54687;50.800;6.772;2023-04-01T00:08:37;1.92;;;0.90;;
11016;SDS011;54687;50.800;6.772;2023-04-01T00:11:03;1.05;;;0.90;;
11016;SDS011;54687;50.800;6.772;2023-04-01T00:13:30;1.35;;;0.98;;
11016;SDS011;54687;50.800;6.772;2023-04-01T00:15:58;1.92;;;0.80;;
11016;SDS011;54687;50.800;6.772;2023-04-01T00:18:26;2.17;;;0.90;;
11016;SDS011;54687;50.800;6.772;2023-04-01T00:20:53;0.80;;;0.80;;
11016;SDS011;54687;50.800;6.772;2023-04-01T00:23:19;1.10;;;0.95;;
11016;SDS011;54687;50.800;6.772;2023-04-01T00:25:47;1.70;;;0.70;;
11016;SDS011;54687;50.800;6.772;2023-04-01T00:28:14;1.55;;;1.00;;
11016;SDS011;54687;50.800;6.772;2023-04-01T00:30:41;1.48;;;0.88;;
11016;SDS011;54687;50.800;6.772;2023-04-01T00:33:09;1.48;;;0.60;;
11016;SDS011;54687;50.800;6.772;2023-04-01T00:35:36;0.77;;;0.77;;
11016;SDS011;54687;50.800;6.772;2023-04-01T00:38:03;0.85;;;0.75;;
11016;SDS011;54687;50.800;6.772;2023-04-01T00:40:31;0.88;;;0.75;;
11016;SDS011;54687;50.800;6.772;2023-04-01T00:43:00;0.60;;;0.60;;
11016;SDS011;54687;50.800;6.772;2023-04-01T00:45:31;1.50;;;0.70;;
11016;SDS011;54687;50.800;6.772;2023-04-01T00:48:00;0.77;;;0.60;;
11016;SDS011;54687;50.800;6.772;2023-04-01T00:50:32;1.42;;;0.70;;
11016;SDS011;54687;50.800;6.772;2023-04-01T00:53:01;0.90;;;0.90;;
11016;SDS011;54687;50.800;6.772;2023-04-01T00:55:29;1.60;;;0.88;;
11016;SDS011;54687;50.800;6.772;2023-04-01T00:58:00;1.00;;;0.98;;
11016;SDS011;54687;50.800;6.772;2023-04-01T01:00:29;0.90;;;0.90;;
11016;SDS011;54687;50.800;6.772;2023-04-01T01:02:56;1.45;;;1.20;;
11016;SDS011;54687;50.800;6.772;2023-04-01T01:05:23;1.95;;;1.23;;
11016;SDS011;54687;50.800;6.772;2023-04-01T01:08:00;1.70;;;1.27;;
11016;SDS011;54687;50.800;6.772;2023-04-01T01:10:35;1.30;;;0.80;;
11016;SDS011;54687;50.800;6.772;2023-04-01T01:13:07;1.20;;;0.80;;
11016;SDS011;54687;50.800;6.772;2023-04-01T01:15:38;0.70;;;0.68;;
11016;SDS011;54687;50.800;6.772;2023-04-01T01:18:13;0.88;;;0.60;;
11016;SDS011;54687;50.800;6.772;2023-04-01T01:21:04;1.13;;;0.70;;
11016;SDS011;54687;50.800;6.772;2023-04-01T01:27:02;1.13;;;0.88;;
11016;SDS011;54687;50.800;6.772;2023-04-01T01:29:39;1.25;;;0.73;;
11016;SDS011;54687;50.800;6.772;2023-04-01T01:32:14;2.65;;;1.27;;
11016;SDS011;54687;50.800;6.772;2023-04-01T01:34:53;1.25;;;0.88;;
11016;SDS011;54687;50.800;6.772;2023-04-01T01:37:26;1.15;;;0.68;;
11016;SDS011;54687;50.800;6.772;2023-04-01T01:39:56;0.90;;;0.80;;
11016;SDS011;54687;50.800;6.772;2023-04-01T01:42:26;0.50;;;0.50;;
11016;SDS011;54687;50.800;6.772;2023-04-01T01:44:55;0.65;;;0.63;;
11016;SDS011;54687;50.800;6.772;2023-04-01T01:47:24;1.15;;;0.85;;
11016;SDS011;54687;50.800;6.772;2023-04-01T01:49:53;0.73;;;0.70;;
11016;SDS011;54687;50.800;6.772;2023-04-01T01:52:21;0.43;;;0.43;;
11016;SDS011;54687;50.800;6.772;2023-04-01T01:54:50;0.73;;;0.70;;
11016;SDS011;54687;50.800;6.772;2023-04-01T01:57:20;0.98;;;0.98;;
11016;SDS011;54687;50.800;6.772;2023-04-01T01:59:50;1.35;;;0.75;;
11016;SDS011;54687;50.800;6.772;2023-04-01T02:02:18;0.70;;;0.70;;
11016;SDS011;54687;50.800;6.772;2023-04-01T02:04:46;0.88;;;0.50;;
11016;SDS011;54687;50.800;6.772;2023-04-01T02:07:14;1.02;;;0.60;;
11016;SDS011;54687;50.800;6.772;2023-04-01T02:09:44;1.52;;;0.40;;
11016;SDS011;54687;50.800;6.772;2023-04-01T02:12:13;0.70;;;0.52;;
11016;SDS011;54687;50.800;6.772;2023-04-01T02:14:43;1.35;;;0.80;;
11016;SDS011;54687;50.800;6.772;2023-04-01T02:17:16;1.50;;;0.82;;
11016;SDS011;54687;50.800;6.772;2023-04-01T02:19:46;0.60;;;0.57;;
11016;SDS011;54687;50.800;6.772;2023-04-01T02:22:16;1.55;;;0.70;;
11016;SDS011;54687;50.800;6.772;2023-04-01T02:24:46;0.80;;;0.80;;
11016;SDS011;54687;50.800;6.772;2023-04-01T02:27:16;0.60;;;0.60;;
11016;SDS011;54687;50.800;6.772;2023-04-01T02:29:43;0.45;;;0.45;;
11016;SDS011;54687;50.800;6.772;2023-04-01T02:32:10;0.57;;;0.47;;
11016;SDS011;54687;50.800;6.772;2023-04-01T02:34:36;0.50;;;0.50;;
11016;SDS011;54687;50.800;6.772;2023-04-01T02:37:04;0.60;;;0.60;;
11016;SDS011;54687;50.800;6.772;2023-04-01T02:39:30;0.85;;;0.52;;
11016;SDS011;54687;50.800;6.772;2023-04-01T02:41:57;0.45;;;0.40;;
11016;SDS011;54687;50.800;6.772;2023-04-01T02:44:25;0.43;;;0.43;;
11016;SDS011;54687;50.800;6.772;2023-04-01T02:46:51;1.50;;;0.73;;
11016;SDS011;54687;50.800;6.772;2023-04-01T02:49:18;0.65;;;0.60;;
11016;SDS011;54687;50.800;6.772;2023-04-01T02:51:44;0.65;;;0.40;;
11016;SDS011;54687;50.800;6.772;2023-04-01T02:54:11;0.70;;;0.70;;
11016;SDS011;54687;50.800;6.772;2023-04-01T02:56:38;1.05;;;0.63;;
11016;SDS011;54687;50.800;6.772;2023-04-01T02:59:04;1.23;;;0.60;;
11016;SDS011;54687;50.800;6.772;2023-04-01T03:01:32;0.30;;;0.30;;
11016;SDS011;54687;50.800;6.772;2023-04-01T03:03:59;0.40;;;0.40;;
11016;SDS011;54687;50.800;6.772;2023-04-01T03:06:25;0.57;;;0.52;;
11016;SDS011;54687;50.800;6.772;2023-04-01T03:08:52;0.75;;;0.75;;
11016;SDS011;54687;50.800;6.772;2023-04-01T03:11:18;0.47;;;0.43;;
11016;SDS011;54687;50.800;6.772;2023-04-01T03:13:46;2.65;;;2.38;;
11016;SDS011;54687;50.800;6.772;2023-04-01T03:16:13;0.32;;;0.32;;
11016;SDS011;54687;50.800;6.772;2023-04-01T03:18:41;0.60;;;0.60;;
11016;SDS011;54687;50.800;6.772;2023-04-01T03:21:12;0.60;;;0.60;;
11016;SDS011;54687;50.800;6.772;2023-04-01T03:23:40;0.20;;;0.20;;
11016;SDS011;54687;50.800;6.772;2023-04-01T03:26:06;0.70;;;0.50;;
11016;SDS011;54687;50.800;6.772;2023-04-01T03:28:34;0.32;;;0.32;;
11016;SDS011;54687;50.800;6.772;2023-04-01T03:31:00;0.50;;;0.50;;
11016;SDS011;54687;50.800;6.772;2023-04-01T03:33:27;0.80;;;0.80;;
11016;SDS011;54687;50.800;6.772;2023-04-01T03:35:55;0.85;;;0.55;;
11016;SDS011;54687;50.800;6.772;2023-04-01T03:38:22;0.60;;;0.50;;
11016;SDS011;54687;50.800;6.772;2023-04-01T03:40:48;0.60;;;0.60;;
11016;SDS011;54687;50.800;6.772;2023-04-01T03:43:15;0.22;;;0.22;;
11016;SDS011;54687;50.800;6.772;2023-04-01T03:45:45;0.30;;;0.30;;
11016;SDS011;54687;50.800;6.772;2023-04-01T03:48:13;0.60;;;0.60;;
11016;SDS011;54687;50.800;6.772;2023-04-01T03:50:40;1.00;;;0.63;;
11016;SDS011;54687;50.800;6.772;2023-04-01T03:53:08;0.70;;;0.70;;
11016;SDS011;54687;50.800;6.772;2023-04-01T03:55:35;0.88;;;0.88;;
11016;SDS011;54687;50.800;6.772;2023-04-01T03:58:02;0.77;;;0.77;;
11016;SDS011;54687;50.800;6.772;2023-04-01T04:00:29;0.65;;;0.65;;
11016;SDS011;54687;50.800;6.772;2023-04-01T04:02:56;1.83;;;1.70;;
11016;SDS011;54687;50.800;6.772;2023-04-01T04:05:24;1.13;;;1.00;;
11016;SDS011;54687;50.800;6.772;2023-04-01T04:07:52;0.65;;;0.65;;
11016;SDS011;54687;50.800;6.772;2023-04-01T04:10:22;0.68;;;0.68;;
11016;SDS011;54687;50.800;6.772;2023-04-01T04:12:50;0.50;;;0.50;;
11016;SDS011;54687;50.800;6.772;2023-04-01T04:15:17;0.85;;;0.85;;
11016;SDS011;54687;50.800;6.772;2023-04-01T04:17:44;0.63;;;0.63;;
11016;SDS011;54687;50.800;6.772;2023-04-01T04:20:11;0.80;;;0.77;;
11016;SDS011;54687;50.800;6.772;2023-04-01T04:22:38;0.50;;;0.50;;
11016;SDS011;54687;50.800;6.772;2023-04-01T04:25:05;0.43;;;0.43;;
11016;SDS011;54687;50.800;6.772;2023-04-01T04:27:33;1.08;;;1.08;;
11016;SDS011;54687;50.800;6.772;2023-04-01T04:30:00;0.88;;;0.88;;
11016;SDS011;54687;50.800;6.772;2023-04-01T04:32:26;0.50;;;0.40;;
11016;SDS011;54687;50.800;6.772;2023-04-01T04:34:53;0.60;;;0.60;;
11016;SDS011;54687;50.800;6.772;2023-04-01T04:37:20;0.77;;;0.77;;
11016;SDS011;54687;50.800;6.772;2023-04-01T04:39:46;0.50;;;0.50;;
11016;SDS011;54687;50.800;6.772;2023-04-01T04:42:13;0.90;;;0.88;;
11016;SDS011;54687;50.800;6.772;2023-04-01T04:44:41;0.60;;;0.60;;
11016;SDS011;54687;50.800;6.772;2023-04-01T04:47:07;1.17;;;0.80;;
11016;SDS011;54687;50.800;6.772;2023-04-01T04:49:34;0.30;;;0.30;;
11016;SDS011;54687;50.800;6.772;2023-04-01T04:52:00;0.77;;;0.77;;
11016;SDS011;54687;50.800;6.772;2023-04-01T04:54:27;1.67;;;0.88;;
11016;SDS011;54687;50.800;6.772;2023-04-01T04:56:53;0.60;;;0.60;;
11016;SDS011;54687;50.800;6.772;2023-04-01T04:59:20;0.60;;;0.55;;
11016;SDS011;54687;50.800;6.772;2023-04-01T05:01:48;0.25;;;0.25;;
11016;SDS011;54687;50.800;6.772;2023-04-01T05:04:14;0.70;;;0.50;;
11016;SDS011;54687;50.800;6.772;2023-04-01T05:06:42;0.30;;;0.30;;
11016;SDS011;54687;50.800;6.772;2023-04-01T05:09:09;0.52;;;0.50;;
11016;SDS011;54687;50.800;6.772;2023-04-01T05:11:36;0.40;;;0.40;;
11016;SDS011;54687;50.800;6.772;2023-04-01T05:14:02;0.35;;;0.35;;
11016;SDS011;54687;50.800;6.772;2023-04-01T05:16:29;0.30;;;0.30;;
11016;SDS011;54687;50.800;6.772;2023-04-01T05:18:58;0.40;;;0.40;;
11016;SDS011;54687;50.800;6.772;2023-04-01T05:21:24;0.52;;;0.52;;
11016;SDS011;54687;50.800;6.772;2023-04-01T05:23:51;1.20;;;1.10;;
11016;SDS011;54687;50.800;6.772;2023-04-01T05:26:17;0.63;;;0.63;;
11016;SDS011;54687;50.800;6.772;2023-04-01T05:28:44;0.55;;;0.55;;
11016;SDS011;54687;50.800;6.772;2023-04-01T05:31:11;0.35;;;0.35;;
11016;SDS011;54687;50.800;6.772;2023-04-01T05:33:37;0.40;;;0.40;;
11016;SDS011;54687;50.800;6.772;2023-04-01T05:36:09;0.68;;;0.68;;
11016;SDS011;54687;50.800;6.772;2023-04-01T05:38:39;0.40;;;0.40;;
11016;SDS011;54687;50.800;6.772;2023-04-01T05:41:07;2.63;;;0.93;;
11016;SDS011;54687;50.800;6.772;2023-04-01T05:43:35;0.82;;;0.68;;
11016;SDS011;54687;50.800;6.772;2023-04-01T05:46:02;0.38;;;0.38;;
11016;SDS011;54687;50.800;6.772;2023-04-01T05:48:28;0.55;;;0.55;;
11016;SDS011;54687;50.800;6.772;2023-04-01T05:50:55;0.60;;;0.60;;
11016;SDS011;54687;50.800;6.772;2023-04-01T05:53:23;0.82;;;0.82;;
11016;SDS011;54687;50.800;6.772;2023-04-01T05:55:50;0.65;;;0.65;;
11016;SDS011;54687;50.800;6.772;2023-04-01T05:58:16;0.98;;;0.77;;
11016;SDS011;54687;50.800;6.772;2023-04-01T06:00:43;0.63;;;0.63;;
11016;SDS011;54687;50.800;6.772;2023-04-01T06:03:10;0.60;;;0.60;;
11016;SDS011;54687;50.800;6.772;2023-04-01T06:05:38;0.30;;;0.30;;
11016;SDS011;54687;50.800;6.772;2023-04-01T06:08:10;0.63;;;0.63;;
11016;SDS011;54687;50.800;6.772;2023-04-01T06:10:42;1.33;;;0.82;;
11016;SDS011;54687;50.800;6.772;2023-04-01T06:13:20;0.55;;;0.55;;
11016;SDS011;54687;50.800;6.772;2023-04-01T06:15:57;1.50;;;0.75;;
11016;SDS011;54687;50.800;6.772;2023-04-01T06:18:39;0.85;;;0.70;;
11016;SDS011;54687;50.800;6.772;2023-04-01T06:21:21;0.65;;;0.65;;
11016;SDS011;54687;50.800;6.772;2023-04-01T06:27:04;1.20;;;0.70;;
11016;SDS011;54687;50.800;6.772;2023-04-01T06:29:44;0.63;;;0.63;;
11016;SDS011;54687;50.800;6.772;2023-04-01T06:35:21;1.33;;;1.23;;
11016;SDS011;54687;50.800;6.772;2023-04-01T06:38:01;1.55;;;1.45;;
11016;SDS011;54687;50.800;6.772;2023-04-01T06:41:00;2.40;;;1.52;;
11016;SDS011;54687;50.800;6.772;2023-04-01T06:43:47;1.30;;;1.20;;
11016;SDS011;54687;50.800;6.772;2023-04-01T06:46:27;1.63;;;1.10;;
11016;SDS011;54687;50.800;6.772;2023-04-01T06:49:07;1.58;;;1.48;;
11016;SDS011;54687;50.800;6.772;2023-04-01T06:51:48;2.33;;;1.70;;
11016;SDS011;54687;50.800;6.772;2023-04-01T06:54:24;1.35;;;1.25;;
11016;SDS011;54687;50.800;6.772;2023-04-01T06:56:58;1.70;;;1.60;;
11016;SDS011;54687;50.800;6.772;2023-04-01T06:59:30;1.50;;;1.40;;
11016;SDS011;54687;50.800;6.772;2023-04-01T07:02:02;2.25;;;1.08;;
11016;SDS011;54687;50.800;6.772;2023-04-01T07:04:46;0.88;;;0.88;;
11016;SDS011;54687;50.800;6.772;2023-04-01T07:07:15;1.17;;;1.05;;
11016;SDS011;54687;50.800;6.772;2023-04-01T07:09:48;1.88;;;1.17;;
11016;SDS011;54687;50.800;6.772;2023-04-01T07:12:19;1.20;;;1.10;;
11016;SDS011;54687;50.800;6.772;2023-04-01T07:14:52;1.20;;;1.10;;
11016;SDS011;54687;50.800;6.772;2023-04-01T07:17:22;0.88;;;0.88;;
11016;SDS011;54687;50.800;6.772;2023-04-01T07:19:56;1.90;;;0.90;;
11016;SDS011;54687;50.800;6.772;2023-04-01T07:22:29;0.88;;;0.80;;
11016;SDS011;54687;50.800;6.772;2023-04-01T07:25:02;1.30;;;1.20;;
11016;SDS011;54687;50.800;6.772;2023-04-01T07:27:32;1.27;;;1.25;;
11016;SDS011;54687;50.800;6.772;2023-04-01T07:30:00;1.67;;;1.52;;
11016;SDS011;54687;50.800;6.772;2023-04-01T07:32:30;1.27;;;1.25;;
11016;SDS011;54687;50.800;6.772;2023-04-01T07:35:11;1.63;;;1.52;;
11016;SDS011;54687;50.800;6.772;2023-04-01T07:37:50;2.45;;;1.10;;
11016;SDS011;54687;50.800;6.772;2023-04-01T07:40:31;1.58;;;1.10;;
11016;SDS011;54687;50.800;6.772;2023-04-01T07:43:10;0.95;;;0.95;;
11016;SDS011;54687;50.800;6.772;2023-04-01T07:45:52;0.77;;;0.77;;
11016;SDS011;54687;50.800;6.772;2023-04-01T07:48:30;1.60;;;0.80;;
11016;SDS011;54687;50.800;6.772;2023-04-01T07:51:01;1.23;;;1.13;;
11016;SDS011;54687;50.800;6.772;2023-04-01T07:53:34;1.50;;;1.00;;
11016;SDS011;54687;50.800;6.772;2023-04-01T07:56:08;0.75;;;0.75;;
11016;SDS011;54687;50.800;6.772;2023-04-01T07:58:41;1.70;;;1.17;;
11016;SDS011;54687;50.800;6.772;2023-04-01T08:01:20;0.70;;;0.70;;
11016;SDS011;54687;50.800;6.772;2023-04-01T08:04:03;1.20;;;1.20;;
11016;SDS011;54687;50.800;6.772;2023-04-01T08:06:44;1.30;;;1.20;;
11016;SDS011;54687;50.800;6.772;2023-04-01T08:09:19;0.73;;;0.73;;
11016;SDS011;54687;50.800;6.772;2023-04-01T08:12:00;0.93;;;0.90;;
11016;SDS011;54687;50.800;6.772;2023-04-01T08:14:43;0.60;;;0.60;;
11016;SDS011;54687;50.800;6.772;2023-04-01T08:17:21;0.85;;;0.70;;
11016;SDS011;54687;50.800;6.772;2023-04-01T08:19:59;0.60;;;0.60;;
11016;SDS011;54687;50.800;6.772;2023-04-01T08:22:40;0.70;;;0.60;;
11016;SDS011;54687;50.800;6.772;2023-04-01T08:25:13;0.40;;;0.40;;
11016;SDS011;54687;50.800;6.772;2023-04-01T08:27:44;0.68;;;0.68;;
11016;SDS011;54687;50.800;6.772;2023-04-01T08:30:18;0.70;;;0.70;;
11016;SDS011;54687;50.800;6.772;2023-04-01T08:32:47;0.70;;;0.70;;
11016;SDS011;54687;50.800;6.772;2023-04-01T08:35:21;1.33;;;0.75;;
11016;SDS011;54687;50.800;6.772;2023-04-01T08:37:53;0.85;;;0.85;;
11016;SDS011;54687;50.800;6.772;2023-04-01T08:40:37;0.90;;;0.90;;
11016;SDS011;54687;50.800;6.772;2023-04-01T08:43:17;0.60;;;0.60;;
11016;SDS011;54687;50.800;6.772;2023-04-01T08:46:22;0.98;;;0.90;;
11016;SDS011;54687;50.800;6.772;2023-04-01T08:49:06;0.75;;;0.75;;
11016;SDS011;54687;50.800;6.772;2023-04-01T08:54:46;0.63;;;0.43;;
11016;SDS011;54687;50.800;6.772;2023-04-01T08:57:25;1.75;;;1.17;;
11016;SDS011;54687;50.800;6.772;2023-04-01T09:00:10;2.72;;;1.38;;
11016;SDS011;54687;50.800;6.772;2023-04-01T09:08:42;1.00;;;0.90;;
11016;SDS011;54687;50.800;6.772;2023-04-01T09:11:23;1.35;;;1.00;;
11016;SDS011;54687;50.800;6.772;2023-04-01T09:14:07;0.82;;;0.82;;
11016;SDS011;54687;50.800;6.772;2023-04-01T09:19:54;1.05;;;0.95;;
11016;SDS011;54687;50.800;6.772;2023-04-01T09:22:38;0.68;;;0.68;;
11016;SDS011;54687;50.800;6.772;2023-04-01T09:25:24;1.38;;;0.73;;
11016;SDS011;54687;50.800;6.772;2023-04-01T09:28:15;1.13;;;0.77;;
11016;SDS011;54687;50.800;6.772;2023-04-01T09:30:56;0.75;;;0.75;;
11016;SDS011;54687;50.800;6.772;2023-04-01T09:33:49;1.20;;;1.10;;
11016;SDS011;54687;50.800;6.772;2023-04-01T09:36:45;1.17;;;0.80;;
11016;SDS011;54687;50.800;6.772;2023-04-01T09:42:15;0.77;;;0.60;;
11016;SDS011;54687;50.800;6.772;2023-04-01T09:44:57;1.55;;;0.80;;
11016;SDS011;54687;50.800;6.772;2023-04-01T09:47:35;1.35;;;1.10;;
11016;SDS011;54687;50.800;6.772;2023-04-01T09:50:17;1.30;;;0.95;;
11016;SDS011;54687;50.800;6.772;2023-04-01T09:53:13;0.77;;;0.77;;
11016;SDS011;54687;50.800;6.772;2023-04-01T09:59:07;0.88;;;0.88;;
11016;SDS011;54687;50.800;6.772;2023-04-01T10:01:57;1.02;;;0.80;;
11016;SDS011;54687;50.800;6.772;2023-04-01T10:07:58;1.10;;;1.00;;
11016;SDS011;54687;50.800;6.772;2023-04-01T10:10:44;1.20;;;1.10;;
11016;SDS011;54687;50.800;6.772;2023-04-01T10:16:42;0.80;;;0.80;;
11016;SDS011;54687;50.800;6.772;2023-04-01T10:19:30;0.82;;;0.82;;
11016;SDS011;54687;50.800;6.772;2023-04-01T10:25:22;2.38;;;1.00;;
11016;SDS011;54687;50.800;6.772;2023-04-01T10:31:35;0.80;;;0.80;;
11016;SDS011;54687;50.800;6.772;2023-04-01T10:34:38;0.70;;;0.70;;
11016;SDS011;54687;50.800;6.772;2023-04-01T10:37:39;0.90;;;0.90;;
11016;SDS011;54687;50.800;6.772;2023-04-01T10:46:34;0.45;;;0.45;;
11016;SDS011;54687;50.800;6.772;2023-04-01T10:52:43;0.57;;;0.57;;
11016;SDS011;54687;50.800;6.772;2023-04-01T11:04:36;1.08;;;0.95;;
11016;SDS011;54687;50.800;6.772;2023-04-01T11:07:30;0.80;;;0.80;;
11016;SDS011;54687;50.800;6.772;2023-04-01T11:13:58;0.95;;;0.95;;
11016;SDS011;54687;50.800;6.772;2023-04-01T11:17:08;0.80;;;0.80;;
11016;SDS011;54687;50.800;6.772;2023-04-01T11:26:02;1.20;;;1.10;;
11016;SDS011;54687;50.800;6.772;2023-04-01T11:28:38;1.00;;;1.00;;
11016;SDS011;54687;50.800;6.772;2023-04-01T11:31:20;0.80;;;0.80;;
11016;SDS011;54687;50.800;6.772;2023-04-01T11:34:02;1.42;;;0.70;;
11016;SDS011;54687;50.800;6.772;2023-04-01T11:36:40;0.95;;;0.95;;
11016;SDS011;54687;50.800;6.772;2023-04-01T11:39:20;0.75;;;0.75;;
11016;SDS011;54687;50.800;6.772;2023-04-01T11:41:56;0.65;;;0.65;;
11016;SDS011;54687;50.800;6.772;2023-04-01T11:44:30;0.80;;;0.80;;
11016;SDS011;54687;50.800;6.772;2023-04-01T11:47:10;1.23;;;1.00;;
11016;SDS011;54687;50.800;6.772;2023-04-01T11:50:01;1.08;;;1.00;;
11016;SDS011;54687;50.800;6.772;2023-04-01T11:52:55;1.70;;;1.60;;
11016;SDS011;54687;50.800;6.772;2023-04-01T11:55:32;1.00;;;1.00;;
11016;SDS011;54687;50.800;6.772;2023-04-01T11:58:16;2.83;;;1.67;;
11016;SDS011;54687;50.800;6.772;2023-04-01T12:01:10;2.60;;;1.73;;
11016;SDS011;54687;50.800;6.772;2023-04-01T12:06:54;0.70;;;0.50;;
11016;SDS011;54687;50.800;6.772;2023-04-01T12:09:32;1.25;;;0.68;;
11016;SDS011;54687;50.800;6.772;2023-04-01T12:12:12;0.63;;;0.63;;
11016;SDS011;54687;50.800;6.772;2023-04-01T12:14:47;0.82;;;0.80;;
11016;SDS011;54687;50.800;6.772;2023-04-01T12:17:27;0.73;;;0.55;;
11016;SDS011;54687;50.800;6.772;2023-04-01T12:20:02;1.48;;;1.10;;
11016;SDS011;54687;50.800;6.772;2023-04-01T12:22:55;2.08;;;1.00;;
11016;SDS011;54687;50.800;6.772;2023-04-01T12:25:38;1.40;;;0.70;;
11016;SDS011;54687;50.800;6.772;2023-04-01T12:28:37;1.55;;;0.77;;
11016;SDS011;54687;50.800;6.772;2023-04-01T12:31:23;0.98;;;0.50;;
11016;SDS011;54687;50.800;6.772;2023-04-01T12:34:09;1.02;;;0.88;;
11016;SDS011;54687;50.800;6.772;2023-04-01T12:36:56;0.55;;;0.50;;
11016;SDS011;54687;50.800;6.772;2023-04-01T12:39:47;0.30;;;0.30;;
11016;SDS011;54687;50.800;6.772;2023-04-01T12:42:31;0.47;;;0.47;;
11016;SDS011;54687;50.800;6.772;2023-04-01T12:45:13;0.45;;;0.43;;
11016;SDS011;54687;50.800;6.772;2023-04-01T12:51:05;0.60;;;0.60;;
11016;SDS011;54687;50.800;6.772;2023-04-01T12:54:02;0.65;;;0.50;;
11016;SDS011;54687;50.800;6.772;2023-04-01T12:56:52;0.32;;;0.32;;
11016;SDS011;54687;50.800;6.772;2023-04-01T12:59:44;0.60;;;0.60;;
11016;SDS011;54687;50.800;6.772;2023-04-01T13:02:25;0.80;;;0.80;;
11016;SDS011;54687;50.800;6.772;2023-04-01T13:05:13;0.88;;;0.88;;
11016;SDS011;54687;50.800;6.772;2023-04-01T13:07:53;0.60;;;0.60;;
11016;SDS011;54687;50.800;6.772;2023-04-01T13:10:41;0.60;;;0.60;;
11016;SDS011;54687;50.800;6.772;2023-04-01T13:16:20;0.60;;;0.60;;
11016;SDS011;54687;50.800;6.772;2023-04-01T13:18:54;0.52;;;0.52;;
11016;SDS011;54687;50.800;6.772;2023-04-01T13:21:28;0.52;;;0.47;;
11016;SDS011;54687;50.800;6.772;2023-04-01T13:24:15;0.60;;;0.55;;
11016;SDS011;54687;50.800;6.772;2023-04-01T13:26:53;1.00;;;0.80;;
11016;SDS011;54687;50.800;6.772;2023-04-01T13:29:31;0.75;;;0.75;;
11016;SDS011;54687;50.800;6.772;2023-04-01T13:32:06;0.60;;;0.60;;
11016;SDS011;54687;50.800;6.772;2023-04-01T13:34:47;1.42;;;1.13;;
11016;SDS011;54687;50.800;6.772;2023-04-01T13:37:29;0.90;;;0.90;;
11016;SDS011;54687;50.800;6.772;2023-04-01T13:40:18;1.30;;;1.20;;
11016;SDS011;54687;50.800;6.772;2023-04-01T13:42:53;0.73;;;0.73;;
11016;SDS011;54687;50.800;6.772;2023-04-01T13:45:26;0.65;;;0.65;;
11016;SDS011;54687;50.800;6.772;2023-04-01T13:48:11;1.35;;;0.90;;
11016;SDS011;54687;50.800;6.772;2023-04-01T13:50:59;0.90;;;0.90;;
11016;SDS011;54687;50.800;6.772;2023-04-01T13:53:44;1.30;;;1.20;;
11016;SDS011;54687;50.800;6.772;2023-04-01T13:56:34;1.88;;;1.77;;
11016;SDS011;54687;50.800;6.772;2023-04-01T13:59:25;1.17;;;1.08;;
11016;SDS011;54687;50.800;6.772;2023-04-01T14:02:17;1.35;;;1.10;;
11016;SDS011;54687;50.800;6.772;2023-04-01T14:05:01;1.17;;;0.98;;
11016;SDS011;54687;50.800;6.772;2023-04-01T14:07:48;1.10;;;1.00;;
11016;SDS011;54687;50.800;6.772;2023-04-01T14:10:23;1.50;;;1.25;;
11016;SDS011;54687;50.800;6.772;2023-04-01T14:12:58;1.05;;;0.95;;
11016;SDS011;54687;50.800;6.772;2023-04-01T14:15:35;1.27;;;0.85;;
11016;SDS011;54687;50.800;6.772;2023-04-01T14:18:23;1.23;;;1.13;;
11016;SDS011;54687;50.800;6.772;2023-04-01T14:21:04;1.40;;;1.30;;
11016;SDS011;54687;50.800;6.772;2023-04-01T14:23:47;0.77;;;0.77;;
11016;SDS011;54687;50.800;6.772;2023-04-01T14:26:30;0.60;;;0.60;;
11016;SDS011;54687;50.800;6.772;2023-04-01T14:29:10;0.68;;;0.65;;
11016;SDS011;54687;50.800;6.772;2023-04-01T14:32:02;0.70;;;0.70;;
11016;SDS011;54687;50.800;6.772;2023-04-01T14:34:40;0.80;;;0.80;;
11016;SDS011;54687;50.800;6.772;2023-04-01T14:37:30;2.70;;;0.85;;
11016;SDS011;54687;50.800;6.772;2023-04-01T14:40:24;2.05;;;1.95;;
11016;SDS011;54687;50.800;6.772;2023-04-01T14:46:00;1.67;;;1.10;;
11016;SDS011;54687;50.800;6.772;2023-04-01T14:48:36;1.15;;;0.98;;
11016;SDS011;54687;50.800;6.772;2023-04-01T14:51:10;2.15;;;1.08;;
11016;SDS011;54687;50.800;6.772;2023-04-01T14:53:43;1.05;;;0.90;;
11016;SDS011;54687;50.800;6.772;2023-04-01T14:56:35;1.60;;;0.82;;
11016;SDS011;54687;50.800;6.772;2023-04-01T14:59:09;0.80;;;0.80;;
11016;SDS011;54687;50.800;6.772;2023-04-01T15:01:41;1.33;;;1.25;;
11016;SDS011;54687;50.800;6.772;2023-04-01T15:04:22;1.35;;;0.90;;
11016;SDS011;54687;50.800;6.772;2023-04-01T15:07:09;1.10;;;1.00;;
11016;SDS011;54687;50.800;6.772;2023-04-01T15:09:48;2.45;;;1.13;;
11016;SDS011;54687;50.800;6.772;2023-04-01T15:12:26;1.45;;;1.35;;
11016;SDS011;54687;50.800;6.772;2023-04-01T15:15:02;0.80;;;0.80;;
11016;SDS011;54687;50.800;6.772;2023-04-01T15:17:52;1.30;;;1.13;;
11016;SDS011;54687;50.800;6.772;2023-04-01T15:20:31;1.50;;;1.40;;
11016;SDS011;54687;50.800;6.772;2023-04-01T15:23:13;1.30;;;1.20;;
11016;SDS011;54687;50.800;6.772;2023-04-01T15:26:03;1.20;;;1.10;;
11016;SDS011;54687;50.800;6.772;2023-04-01T15:28:40;1.10;;;1.00;;
11016;SDS011;54687;50.800;6.772;2023-04-01T15:31:14;1.42;;;1.33;;
11016;SDS011;54687;50.800;6.772;2023-04-01T15:33:52;1.50;;;1.35;;
11016;SDS011;54687;50.800;6.772;2023-04-01T15:36:35;1.10;;;1.10;;
11016;SDS011;54687;50.800;6.772;2023-04-01T15:39:12;1.50;;;1.40;;
11016;SDS011;54687;50.800;6.772;2023-04-01T15:41:48;1.70;;;1.60;;
11016;SDS011;54687;50.800;6.772;2023-04-01T15:44:46;2.08;;;1.67;;
11016;SDS011;54687;50.800;6.772;2023-04-01T15:53:18;1.52;;;1.42;;
11016;SDS011;54687;50.800;6.772;2023-04-01T15:55:56;4.50;;;2.08;;
11016;SDS011;54687;50.800;6.772;2023-04-01T15:58:42;2.10;;;2.00;;
11016;SDS011;54687;50.800;6.772;2023-04-01T16:01:22;2.45;;;1.80;;
11016;SDS011;54687;50.800;6.772;2023-04-01T16:03:59;2.03;;;1.83;;
11016;SDS011;54687;50.800;6.772;2023-04-01T16:06:49;2.00;;;1.90;;
11016;SDS011;54687;50.800;6.772;2023-04-01T16:09:32;1.25;;;1.15;;
11016;SDS011;54687;50.800;6.772;2023-04-01T16:12:14;1.30;;;1.20;;
11016;SDS011;54687;50.800;6.772;2023-04-01T16:14:48;1.90;;;1.20;;
11016;SDS011;54687;50.800;6.772;2023-04-01T16:17:29;1.08;;;1.08;;
11016;SDS011;54687;50.800;6.772;2023-04-01T16:20:13;1.45;;;1.35;;
11016;SDS011;54687;50.800;6.772;2023-04-01T16:22:49;1.45;;;1.35;;
11016;SDS011;54687;50.800;6.772;2023-04-01T16:25:26;1.15;;;1.08;;
11016;SDS011;54687;50.800;6.772;2023-04-01T16:28:08;0.98;;;0.98;;
11016;SDS011;54687;50.800;6.772;2023-04-01T16:30:47;1.30;;;1.20;;
11016;SDS011;54687;50.800;6.772;2023-04-01T16:33:21;1.52;;;1.10;;
11016;SDS011;54687;50.800;6.772;2023-04-01T16:35:53;1.15;;;0.93;;
11016;SDS011;54687;50.800;6.772;2023-04-01T16:38:24;1.40;;;1.30;;
11016;SDS011;54687;50.800;6.772;2023-04-01T16:41:11;1.27;;;1.17;;
11016;SDS011;54687;50.800;6.772;2023-04-01T16:43:44;1.50;;;1.35;;
11016;SDS011;54687;50.800;6.772;2023-04-01T16:46:27;1.90;;;1.80;;
11016;SDS011;54687;50.800;6.772;2023-04-01T16:48:59;1.45;;;1.35;;
11016;SDS011;54687;50.800;6.772;2023-04-01T16:51:35;1.55;;;1.35;;
11016;SDS011;54687;50.800;6.772;2023-04-01T16:54:11;1.50;;;1.40;;
11016;SDS011;54687;50.800;6.772;2023-04-01T16:56:43;1.73;;;1.63;;
11016;SDS011;54687;50.800;6.772;2023-04-01T16:59:17;2.03;;;1.80;;
11016;SDS011;54687;50.800;6.772;2023-04-01T17:01:50;1.60;;;1.50;;
11016;SDS011;54687;50.800;6.772;2023-04-01T17:04:23;1.35;;;1.27;;
11016;SDS011;54687;50.800;6.772;2023-04-01T17:06:59;1.50;;;1.40;;